createdAt,value
2024-05-09T00:00:43.656Z,95228.25
2024-05-09T00:03:12.089Z,95223.75
2024-05-09T00:05:43.772Z,95237.50
2024-05-09T00:08:11.910Z,95231.94
2024-05-09T00:10:40.543Z,95229.88
2024-05-09T00:13:10.599Z,95236.00
2024-05-09T00:15:38.529Z,95223.88
2024-05-09T00:18:07.684Z,95229.88
2024-05-09T00:20:39.161Z,95218.69
2024-05-09T00:23:13.613Z,95214.50
2024-05-09T00:25:45.735Z,95209.13
2024-05-09T00:28:13.289Z,95206.44
2024-05-09T00:30:40.992Z,95209.13
2024-05-09T00:33:10.387Z,95204.63
2024-05-09T00:35:39.327Z,95206.13
2024-05-09T00:38:06.870Z,95209.25
2024-05-09T00:40:43.086Z,95212.09
2024-05-09T00:43:14.917Z,95214.91
2024-05-09T00:45:43.782Z,95214.03
2024-05-09T00:48:15.262Z,95220.16
2024-05-09T00:50:46.727Z,95214.16
2024-05-09T00:53:17.526Z,95223.06
2024-05-09T00:55:45.343Z,95226.94
2024-05-09T00:58:15.896Z,95223.50
2024-05-09T01:00:44.412Z,95220.81
2024-05-09T01:03:13.612Z,95212.00
2024-05-09T01:05:43.313Z,95218.03
2024-05-09T01:08:11.698Z,95216.53
2024-05-09T01:10:40.784Z,95207.81
2024-05-09T01:13:10.211Z,95217.38
2024-05-09T01:15:37.416Z,95213.63
2024-05-09T01:18:09.837Z,95215.59
2024-05-09T01:20:42.200Z,95220.50
2024-05-09T01:23:12.625Z,95221.25
2024-05-09T01:25:40.703Z,95220.66
2024-05-09T01:28:08.348Z,95221.06
2024-05-09T01:30:37.446Z,95223.34
2024-05-09T01:33:10.350Z,95219.75
2024-05-09T01:35:41.668Z,95220.50
2024-05-09T01:38:12.928Z,95212.91
2024-05-09T01:40:40.687Z,95214.38
2024-05-09T01:43:10.209Z,95211.69
2024-05-09T01:45:39.044Z,95209.13
2024-05-09T01:48:07.033Z,95219.47
2024-05-09T01:50:39.465Z,95213.75
2024-05-09T01:53:10.801Z,95216.13
2024-05-09T01:55:38.473Z,95208.19
2024-05-09T01:58:05.882Z,95226.44
2024-05-09T02:00:39.273Z,95218.06
2024-05-09T02:03:13.889Z,95220.44
2024-05-09T02:05:44.800Z,95218.63
2024-05-09T02:08:16.744Z,95226.13
2024-05-09T02:10:45.060Z,95235.38
2024-05-09T02:13:13.010Z,95226.25
2024-05-09T02:15:40.310Z,95227.91
2024-05-09T02:18:08.691Z,95222.06
2024-05-09T02:20:38.553Z,95227.16
2024-05-09T02:23:08.705Z,95226.41
2024-05-09T02:25:36.234Z,95230.28
2024-05-09T02:28:03.616Z,95236.09
2024-05-09T02:30:39.294Z,95234.91
2024-05-09T02:33:11.298Z,95231.16
2024-05-09T02:35:40.626Z,95232.78
2024-05-09T02:38:10.029Z,95234.28
2024-05-09T02:40:39.287Z,95230.53
2024-05-09T02:43:10.232Z,95229.78
2024-05-09T02:45:39.016Z,95226.03
2024-05-09T02:48:07.203Z,95232.16
2024-05-09T02:50:38.952Z,95222.28
2024-05-09T02:53:08.660Z,95220.78
2024-05-09T02:55:36.676Z,95223.03
2024-05-09T02:58:04.003Z,95223.91
2024-05-09T03:00:38.372Z,95212.41
2024-05-09T03:03:10.020Z,95210.91
2024-05-09T03:05:39.616Z,95216.59
2024-05-09T03:08:07.370Z,95218.53
2024-05-09T03:10:36.867Z,95217.34
2024-05-09T03:13:15.286Z,95225.84
2024-05-09T03:15:43.816Z,95221.66
2024-05-09T03:18:11.974Z,95225.53
2024-05-09T03:20:40.192Z,95218.34
2024-05-09T03:23:09.881Z,95212.66
2024-05-09T03:25:38.082Z,95214.16
2024-05-09T03:28:05.775Z,95214.91
2024-05-09T03:30:40.161Z,95218.34
2024-05-09T03:33:19.123Z,95217.91
2024-05-09T03:35:48.034Z,95206.13
2024-05-09T03:38:15.696Z,95212.25
2024-05-09T03:40:50.753Z,95208.47
2024-05-09T03:43:19.532Z,95209.22
2024-05-09T03:45:49.001Z,95202.03
2024-05-09T03:48:16.455Z,95204.41
2024-05-09T03:50:43.909Z,95209.16
2024-05-09T03:53:12.807Z,95209.28
2024-05-09T03:55:40.762Z,95209.28
2024-05-09T03:58:08.583Z,95212.28
2024-05-09T04:00:39.222Z,95218.84
2024-05-09T04:03:10.240Z,95206.59
2024-05-09T04:05:44.458Z,95211.03
2024-05-09T04:08:12.238Z,95201.03
2024-05-09T04:10:39.582Z,95210.28
2024-05-09T04:13:06.818Z,95214.78
2024-05-09T04:15:34.189Z,95200.28
2024-05-09T04:18:02.188Z,95196.41
2024-05-09T04:20:37.571Z,95215.53
2024-05-09T04:23:09.536Z,95201.78
2024-05-09T04:25:37.493Z,95205.66
2024-05-09T04:28:05.437Z,95211.03
2024-05-09T04:30:38.518Z,95211.03
2024-05-09T04:33:11.158Z,95217.91
2024-05-09T04:35:42.060Z,95215.53
2024-05-09T04:38:10.115Z,95210.16
2024-05-09T04:40:38.052Z,95210.03
2024-05-09T04:43:06.989Z,95213.91
2024-05-09T04:45:35.264Z,95220.34
2024-05-09T04:48:03.293Z,95225.25
2024-05-09T04:50:36.795Z,95235.56
2024-05-09T04:53:09.132Z,95227.94
2024-05-09T04:55:37.793Z,95239.34
2024-05-09T04:58:05.816Z,95242.78
2024-05-09T05:00:37.142Z,95245.03
2024-05-09T05:03:08.461Z,95243.41
2024-05-09T05:05:40.710Z,95244.91
2024-05-09T05:08:19.298Z,95247.16
2024-05-09T05:10:48.991Z,95247.59
2024-05-09T05:13:18.501Z,95247.44
2024-05-09T05:15:46.897Z,95254.00
2024-05-09T05:18:15.318Z,95254.47
2024-05-09T05:20:43.467Z,95257.44
2024-05-09T05:23:16.496Z,95266.25
2024-05-09T05:25:44.568Z,95264.63
2024-05-09T05:28:11.925Z,95263.13
2024-05-09T05:30:39.788Z,95267.97
2024-05-09T05:33:10.169Z,95267.97
2024-05-09T05:35:37.705Z,95274.09
2024-05-09T05:38:06.885Z,95266.03
2024-05-09T05:40:37.311Z,95280.97
2024-05-09T05:43:10.929Z,95270.50
2024-05-09T05:45:39.213Z,95279.78
2024-05-09T05:48:08.183Z,95276.03
2024-05-09T05:50:37.707Z,95274.84
2024-05-09T05:53:08.214Z,95273.19
2024-05-09T05:55:36.866Z,95275.00
2024-05-09T05:58:04.547Z,95275.00
2024-05-09T06:00:38.371Z,95283.41
2024-05-09T06:03:11.219Z,95271.91
2024-05-09T06:05:46.202Z,95286.53
2024-05-09T06:08:13.769Z,95276.19
2024-05-09T06:10:41.940Z,95275.16
2024-05-09T06:13:14.327Z,95280.53
2024-05-09T06:15:42.690Z,95276.63
2024-05-09T06:18:11.973Z,95282.75
2024-05-09T06:20:41.916Z,95274.84
2024-05-09T06:23:10.650Z,95270.34
2024-05-09T06:25:38.186Z,95274.41
2024-05-09T06:28:05.898Z,95275.16
2024-05-09T06:33:03.962Z,95276.63
2024-05-09T06:35:31.622Z,95276.63
2024-05-09T06:37:59.182Z,95275.16
2024-05-09T06:40:35.904Z,95270.97
2024-05-09T06:43:06.006Z,95269.31
2024-05-09T06:45:33.245Z,95275.00
2024-05-09T06:48:00.673Z,95272.66
2024-05-09T06:50:35.639Z,95277.59
2024-05-09T06:53:05.514Z,95271.78
2024-05-09T06:55:32.792Z,95272.84
2024-05-09T06:58:00.032Z,95268.03
2024-05-09T07:00:35.127Z,95269.53
2024-05-09T07:03:16.047Z,95270.28
2024-05-09T07:05:46.529Z,95274.91
2024-05-09T07:08:14.748Z,95277.16
2024-05-09T07:10:42.191Z,95291.03
2024-05-09T07:13:13.879Z,95284.91
2024-05-09T07:15:42.023Z,95272.75
2024-05-09T07:18:15.676Z,95279.63
2024-05-09T07:20:44.043Z,95289.53
2024-05-09T07:23:12.843Z,95291.78
2024-05-09T07:25:41.743Z,95292.97
2024-05-09T07:28:13.704Z,95295.97
2024-05-09T07:30:41.097Z,95295.97
2024-05-09T07:33:08.581Z,95293.72
2024-05-09T07:35:36.191Z,95289.84
2024-05-09T07:38:03.620Z,95298.50
2024-05-09T07:40:35.949Z,95298.41
2024-05-09T07:43:05.144Z,95297.63
2024-05-09T07:52:23.014Z,95302.03
2024-05-09T07:53:38.940Z,95299.47
2024-05-09T07:56:09.961Z,95301.81
2024-05-09T07:58:38.060Z,95306.75
2024-05-09T08:01:05.833Z,95308.81
2024-05-09T08:03:33.479Z,95304.75
2024-05-09T08:06:01.021Z,95312.63
2024-05-09T08:08:28.259Z,95309.28
2024-05-09T08:10:55.575Z,95310.59
2024-05-09T08:13:23.216Z,95311.72
2024-05-09T08:15:51.802Z,95314.63
2024-05-09T08:18:19.428Z,95323.41
2024-05-09T08:20:49.482Z,95321.91
2024-05-09T08:23:16.833Z,95329.66
2024-05-09T08:25:44.543Z,95330.72
2024-05-09T08:28:12.913Z,95328.38
2024-05-09T08:30:40.449Z,95331.81
2024-05-09T08:33:08.302Z,95336.97
2024-05-09T08:35:36.216Z,95338.28
2024-05-09T08:38:04.513Z,95339.03
2024-05-09T08:40:35.719Z,95337.63
2024-05-09T08:43:09.829Z,95330.41
2024-05-09T08:45:42.687Z,95321.06
2024-05-09T08:48:14.327Z,95325.50
2024-05-09T08:50:42.787Z,95325.38
2024-05-09T08:53:10.187Z,95327.53
2024-05-09T08:55:41.581Z,95322.47
2024-05-09T08:58:16.914Z,95324.31
2024-05-09T09:00:45.930Z,95329.56
2024-05-09T09:03:17.952Z,95326.78
2024-05-09T09:06:18.299Z,95316.06
2024-05-09T09:08:46.504Z,95321.75
2024-05-09T09:11:13.816Z,95323.88
2024-05-09T09:13:41.127Z,95330.75
2024-05-09T09:16:08.556Z,95333.00
2024-05-09T09:18:36.080Z,95331.06
2024-05-09T09:21:03.608Z,95329.25
2024-05-09T09:23:30.969Z,95334.16
2024-05-09T09:26:01.583Z,95331.47
2024-05-09T09:28:29.959Z,95321.31
2024-05-09T09:31:05.063Z,95320.75
2024-05-09T09:33:33.086Z,95330.22
2024-05-09T09:36:02.913Z,95330.22
2024-05-09T09:38:32.561Z,95326.25
2024-05-09T09:41:00.381Z,95328.06
2024-05-09T09:43:28.372Z,95329.88
2024-05-09T09:45:59.955Z,95325.16
2024-05-09T09:48:27.980Z,95324.28
2024-05-09T09:50:57.217Z,95321.91
2024-05-09T09:53:24.854Z,95322.06
2024-05-09T09:55:52.789Z,95316.78
2024-05-09T09:58:20.418Z,95311.41
2024-05-09T10:00:47.848Z,95315.19
2024-05-09T10:03:15.263Z,95312.06
2024-05-09T10:05:45.282Z,95307.88
2024-05-09T10:08:16.491Z,95301.00
2024-05-09T10:10:47.948Z,95301.31
2024-05-09T10:13:16.310Z,95306.38
2024-05-09T10:15:48.598Z,95306.69
2024-05-09T10:18:16.132Z,95312.69
2024-05-09T10:20:49.458Z,95311.06
2024-05-09T10:23:28.226Z,95306.44
2024-05-09T10:26:00.212Z,95300.00
2024-05-09T10:28:32.001Z,95301.09
2024-05-09T10:31:10.127Z,95300.53
2024-05-09T10:33:47.068Z,95303.09
2024-05-09T10:36:15.490Z,95303.94
2024-05-09T10:38:43.642Z,95299.22
2024-05-09T10:41:11.954Z,95301.13
2024-05-09T10:43:43.471Z,95295.19
2024-05-09T10:46:11.945Z,95299.25
2024-05-09T10:48:42.198Z,95299.78
2024-05-09T10:51:09.822Z,95296.94
2024-05-09T10:53:46.586Z,95304.78
2024-05-09T10:56:14.882Z,95292.84
2024-05-09T10:58:42.175Z,95298.72
2024-05-09T11:01:10.409Z,95293.97
2024-05-09T11:03:39.156Z,95292.63
2024-05-09T11:06:07.395Z,95285.22
2024-05-09T11:08:36.441Z,95287.06
2024-05-09T11:11:07.725Z,95281.69
2024-05-09T11:13:37.343Z,95283.78
2024-05-09T11:16:06.783Z,95288.28
2024-05-09T11:18:38.089Z,95287.66
2024-05-09T11:21:13.455Z,95287.66
2024-05-09T11:23:41.675Z,95286.16
2024-05-09T11:26:10.880Z,95284.69
2024-05-09T11:28:38.270Z,95283.78
2024-05-09T11:31:07.883Z,95286.78
2024-05-09T11:33:55.202Z,95288.28
2024-05-09T11:36:22.569Z,95282.03
2024-05-09T11:38:49.867Z,95287.59
2024-05-09T11:41:21.031Z,95289.72
2024-05-09T11:43:48.297Z,95284.22
2024-05-09T11:46:15.715Z,95277.94
2024-05-09T11:48:43.372Z,95276.75
2024-05-09T11:51:10.824Z,95283.63
2024-05-09T11:53:38.110Z,95278.25
2024-05-09T11:56:05.754Z,95270.16
2024-05-09T11:58:34.883Z,95278.25
2024-05-09T12:01:02.680Z,95268.22
2024-05-09T12:03:30.314Z,95273.94
2024-05-09T12:05:57.797Z,95275.00
2024-05-09T12:08:25.133Z,95272.31
2024-05-09T12:10:52.648Z,95274.56
2024-05-09T12:13:20.276Z,95268.72
2024-05-09T12:15:47.770Z,95270.22
2024-05-09T12:18:15.159Z,95275.47
2024-05-09T12:20:45.763Z,95266.94
2024-05-09T12:23:12.992Z,95267.25
2024-05-09T12:25:40.492Z,95266.06
2024-05-09T12:28:08.896Z,95260.81
2024-05-09T12:30:40.260Z,95257.81
2024-05-09T12:33:13.317Z,95259.31
2024-05-09T12:35:44.047Z,95259.50
2024-05-09T12:38:13.280Z,95256.81
2024-05-09T12:40:40.548Z,95263.38
2024-05-09T12:43:09.277Z,95256.06
2024-05-09T12:45:37.844Z,95264.56
2024-05-09T12:48:08.333Z,95256.19
2024-05-09T12:50:36.835Z,95259.19
2024-05-09T12:53:05.116Z,95258.75
2024-05-09T12:55:41.288Z,95258.44
2024-05-09T12:58:19.471Z,95255.00
2024-05-09T13:00:47.376Z,95258.88
2024-05-09T13:03:15.304Z,95249.31
2024-05-09T13:05:45.121Z,95250.94
2024-05-09T13:08:13.644Z,95254.97
2024-05-09T13:10:41.137Z,95254.22
2024-05-09T13:13:10.601Z,95258.53
2024-05-09T13:15:38.412Z,95253.88
2024-05-09T13:18:06.714Z,95265.19
2024-05-09T13:20:35.848Z,95269.66
2024-05-09T13:23:05.766Z,95265.59
2024-05-09T13:25:35.014Z,95266.03
2024-05-09T13:28:03.594Z,95267.66
2024-05-09T13:30:39.101Z,95278.41
2024-05-09T13:33:13.789Z,95271.53
2024-05-09T13:35:48.775Z,95270.34
2024-05-09T13:38:19.350Z,95273.94
2024-05-09T13:40:47.322Z,95270.16
2024-05-09T13:43:14.960Z,95273.28
2024-05-09T13:45:42.777Z,95275.66
2024-05-09T13:48:10.647Z,95280.69
2024-05-09T13:50:39.074Z,95285.31
2024-05-09T13:53:07.949Z,95283.06
2024-05-09T13:55:39.207Z,95294.72
2024-05-09T13:58:07.562Z,95278.28
2024-05-09T14:00:44.856Z,95296.78
2024-05-09T14:03:18.056Z,95290.59
2024-05-09T14:05:47.256Z,95296.09
2024-05-09T14:08:15.733Z,95291.28
2024-05-09T14:10:45.151Z,95295.16
2024-05-09T14:13:13.409Z,95302.03
2024-05-09T14:15:41.577Z,95297.53
2024-05-09T14:18:12.715Z,95296.88
2024-05-09T14:20:41.421Z,95304.00
2024-05-09T14:23:08.707Z,95295.63
2024-05-09T14:25:39.913Z,95301.88
2024-05-09T14:28:09.712Z,95304.56
2024-05-09T14:30:38.503Z,95305.00
2024-05-09T14:33:07.495Z,95301.88
2024-05-09T14:35:37.440Z,95305.09
2024-05-09T14:38:05.396Z,95301.47
2024-05-09T14:43:03.832Z,95308.59
2024-05-09T14:45:32.866Z,95308.28
2024-05-09T14:48:00.477Z,95316.00
2024-05-09T14:50:35.122Z,95315.69
2024-05-09T14:53:06.672Z,95313.53
2024-05-09T14:55:37.473Z,95316.78
2024-05-09T14:58:12.483Z,95319.69
2024-05-09T15:00:46.939Z,95316.38
2024-05-09T15:03:21.576Z,95318.00
2024-05-09T15:05:49.935Z,95321.06
2024-05-09T15:08:18.700Z,95318.38
2024-05-09T15:10:47.151Z,95320.31
2024-05-09T15:13:16.620Z,95316.38
2024-05-09T15:15:44.824Z,95324.00
2024-05-09T15:18:12.563Z,95329.03
2024-05-09T15:20:40.828Z,95326.34
2024-05-09T15:23:08.236Z,95324.84
2024-05-09T15:25:36.717Z,95323.75
2024-05-09T15:28:07.661Z,95321.50
2024-05-09T15:30:35.597Z,95328.38
2024-05-09T15:33:04.281Z,95325.69
2024-05-09T15:35:32.086Z,95333.75
2024-05-09T15:38:00.328Z,95331.06
2024-05-09T15:40:36.193Z,95319.16
2024-05-09T15:43:08.678Z,95332.25
2024-05-09T15:45:37.123Z,95329.38
2024-05-09T15:48:05.471Z,95333.97
2024-05-09T15:50:38.609Z,95340.94
2024-05-09T15:53:09.954Z,95335.38
2024-05-09T15:55:38.121Z,95329.88
2024-05-09T15:58:06.788Z,95331.06
2024-05-09T16:00:39.180Z,95338.69
2024-05-09T16:03:10.978Z,95350.16
2024-05-09T16:05:39.081Z,95347.59
2024-05-09T16:08:07.759Z,95347.38
2024-05-09T16:10:35.701Z,95352.75
2024-05-09T16:13:03.938Z,95350.16
2024-05-09T16:15:31.892Z,95347.59
2024-05-09T16:17:59.782Z,95347.25
2024-05-09T16:20:35.115Z,95345.75
2024-05-09T16:23:08.192Z,95352.63
2024-05-09T16:25:35.956Z,95353.72
2024-05-09T16:28:07.064Z,95349.19
2024-05-09T16:30:37.145Z,95350.03
2024-05-09T16:33:05.701Z,95353.91
2024-05-09T16:35:34.584Z,95355.63
2024-05-09T16:38:03.700Z,95351.94
2024-05-09T16:40:37.868Z,95357.72
2024-05-09T16:43:08.709Z,95360.41
2024-05-09T16:45:36.809Z,95360.09
2024-05-09T16:48:04.765Z,95366.22
2024-05-09T16:50:34.645Z,95367.50
2024-05-09T16:53:07.175Z,95366.06
2024-05-09T16:55:36.110Z,95371.84
2024-05-09T16:58:04.602Z,95371.84
2024-05-09T17:00:40.060Z,95376.47
2024-05-09T17:03:13.475Z,95376.16
2024-05-09T17:05:42.857Z,95372.06
2024-05-09T17:08:10.483Z,95374.41
2024-05-09T17:10:37.953Z,95371.16
2024-05-09T17:13:07.216Z,95383.28
2024-05-09T17:15:36.414Z,95383.78
2024-05-09T17:18:05.228Z,95383.47
2024-05-09T17:20:35.778Z,95383.88
2024-05-09T17:23:12.666Z,95381.53
2024-05-09T17:25:40.928Z,95386.13
2024-05-09T17:28:09.515Z,95381.63
2024-05-09T17:30:39.280Z,95381.63
2024-05-09T17:33:10.224Z,95390.41
2024-05-09T17:35:38.493Z,95385.59
2024-05-09T17:38:07.060Z,95385.25
2024-05-09T17:40:36.997Z,95382.56
2024-05-09T17:43:08.214Z,95384.91
2024-05-09T17:45:38.857Z,95391.03
2024-05-09T17:48:07.393Z,95394.13
2024-05-09T17:50:37.133Z,95397.22
2024-05-09T17:53:09.092Z,95399.56
2024-05-09T17:55:36.840Z,95404.16
2024-05-09T17:58:05.309Z,95404.63
2024-05-09T18:00:40.214Z,95401.19
2024-05-09T18:03:13.627Z,95400.44
2024-05-09T18:05:43.421Z,95399.66
2024-05-09T18:08:12.093Z,95406.97
2024-05-09T18:10:41.369Z,95408.13
2024-05-09T18:13:10.071Z,95410.13
2024-05-09T18:15:38.663Z,95416.75
2024-05-09T18:18:07.189Z,95411.81
2024-05-09T18:20:42.403Z,95416.09
2024-05-09T18:23:15.458Z,95417.25
2024-05-09T18:25:44.116Z,95417.69
2024-05-09T18:28:11.651Z,95418.50
2024-05-09T18:30:39.570Z,95425.03
2024-05-09T18:33:08.324Z,95424.72
2024-05-09T18:35:36.970Z,95423.22
2024-05-09T18:38:05.613Z,95430.56
2024-05-09T18:40:36.442Z,95432.16
2024-05-09T18:43:08.135Z,95430.34
2024-05-09T18:45:37.783Z,95436.44
2024-05-09T18:48:06.690Z,95438.78
2024-05-09T18:50:38.022Z,95434.69
2024-05-09T18:53:07.957Z,95438.94
2024-05-09T18:55:35.509Z,95437.44
2024-05-09T18:58:03.699Z,95444.28
2024-05-09T19:00:35.723Z,95446.63
2024-05-09T19:03:10.242Z,95452.06
2024-05-09T19:05:40.757Z,95452.50
2024-05-09T19:08:08.910Z,95459.78
2024-05-09T19:10:39.192Z,95456.00
2024-05-09T19:13:11.048Z,95463.28
2024-05-09T19:15:41.261Z,95461.00
2024-05-09T19:18:10.282Z,95464.53
2024-05-09T19:20:38.163Z,95462.28
2024-05-09T19:23:07.399Z,95460.16
2024-05-09T19:25:36.313Z,95466.19
2024-05-09T19:28:04.720Z,95474.56
2024-05-09T19:30:39.156Z,95475.38
2024-05-09T19:33:10.609Z,95485.34
2024-05-09T19:35:38.832Z,95480.06
2024-05-09T19:38:06.794Z,95479.72
2024-05-09T19:40:35.340Z,95475.53
2024-05-09T19:43:05.570Z,95483.91
2024-05-09T19:45:35.435Z,95480.91
2024-05-09T19:48:04.855Z,95480.50
2024-05-09T19:50:40.873Z,95483.91
2024-05-09T19:53:11.948Z,95485.50
2024-05-09T19:55:39.760Z,95483.16
2024-05-09T19:58:08.116Z,95489.28
2024-05-09T20:00:38.622Z,95474.38
2024-05-09T20:03:08.643Z,95486.31
2024-05-09T20:05:37.407Z,95489.75
2024-05-09T20:08:06.775Z,95491.31
2024-05-09T20:10:35.785Z,95487.53
2024-05-09T20:13:08.264Z,95495.56
2024-05-09T20:15:37.835Z,95495.25
2024-05-09T20:18:06.413Z,95491.72
2024-05-09T20:20:39.385Z,95489.59
2024-05-09T20:23:10.429Z,95491.06
2024-05-09T20:25:37.732Z,95493.03
2024-05-09T20:28:06.194Z,95487.34
2024-05-09T20:30:35.411Z,95491.56
2024-05-09T20:33:04.942Z,95500.34
2024-05-09T20:35:33.620Z,95491.25
2024-05-09T20:38:02.320Z,95487.47
2024-05-09T20:40:34.597Z,95494.34
2024-05-09T20:43:05.826Z,95495.50
2024-05-09T20:45:33.977Z,95490.56
2024-05-09T20:48:01.905Z,95496.31
2024-05-09T20:50:37.135Z,95499.06
2024-05-09T20:53:13.092Z,95499.91
2024-05-09T20:55:41.644Z,95496.88
2024-05-09T20:58:10.222Z,95498.06
2024-05-09T21:00:41.373Z,95502.28
2024-05-09T21:03:12.970Z,95495.44
2024-05-09T21:05:41.342Z,95490.09
2024-05-09T21:08:09.115Z,95491.66
2024-05-09T21:10:37.514Z,95486.00
2024-05-09T21:13:06.306Z,95499.44
2024-05-09T21:15:34.508Z,95495.66
2024-05-09T21:18:02.130Z,95497.22
2024-05-09T21:20:32.916Z,95497.22
2024-05-09T21:23:01.994Z,95490.34
2024-05-09T21:25:29.745Z,95491.88
2024-05-09T21:27:57.180Z,95493.78
2024-05-09T21:30:36.949Z,95492.28
2024-05-09T21:33:10.488Z,95498.38
2024-05-09T21:35:39.683Z,95499.53
2024-05-09T21:38:07.678Z,95499.53
2024-05-09T21:40:36.605Z,95497.72
2024-05-09T21:43:05.333Z,95497.72
2024-05-09T21:45:33.190Z,95498.47
2024-05-09T21:48:00.615Z,95489.00
2024-05-09T21:50:35.806Z,95489.34
2024-05-09T21:53:07.354Z,95488.59
2024-05-09T21:55:34.853Z,95492.00
2024-05-09T21:58:02.860Z,95484.34
2024-05-09T22:00:36.169Z,95495.44
2024-05-09T22:03:10.299Z,95489.75
2024-05-09T22:05:39.240Z,95488.22
2024-05-09T22:08:07.104Z,95487.53
2024-05-09T22:10:36.287Z,95483.78
2024-05-09T22:13:06.101Z,95490.97
2024-05-09T22:15:39.655Z,95482.19
2024-05-09T22:18:08.939Z,95484.13
2024-05-09T22:20:43.726Z,95481.47
2024-05-09T22:23:12.220Z,95485.31
2024-05-09T22:25:39.534Z,95476.53
2024-05-09T22:28:07.476Z,95478.03
2024-05-09T22:30:38.481Z,95478.44
2024-05-09T22:33:09.867Z,95476.94
2024-05-09T22:35:38.808Z,95472.75
2024-05-09T22:38:06.408Z,95473.91
2024-05-09T22:40:43.165Z,95480.41
2024-05-09T22:43:21.006Z,95467.81
2024-05-09T22:45:50.309Z,95479.25
2024-05-09T22:48:18.337Z,95468.63
2024-05-09T22:50:45.723Z,95467.88
2024-05-09T22:53:13.106Z,95472.47
2024-05-09T22:55:40.300Z,95472.53
2024-05-09T22:58:07.771Z,95467.25
2024-05-09T23:00:35.468Z,95469.50
2024-05-09T23:03:03.425Z,95466.50
2024-05-09T23:05:32.598Z,95464.63
2024-05-09T23:08:01.780Z,95468.97
2024-05-09T23:10:35.669Z,95471.28
2024-05-09T23:13:05.940Z,95472.44
2024-05-09T23:15:33.554Z,95467.56
2024-05-09T23:18:00.932Z,95473.34
2024-05-09T23:20:36.351Z,95468.00
2024-05-09T23:23:11.350Z,95466.06
2024-05-09T23:25:41.061Z,95463.41
2024-05-09T23:28:08.623Z,95461.53
2024-05-09T23:30:39.377Z,95464.22
2024-05-09T23:33:10.262Z,95459.63
2024-05-09T23:35:37.821Z,95451.25
2024-05-09T23:38:05.315Z,95456.19
2024-05-09T23:43:03.554Z,95461.59
2024-05-09T23:45:31.170Z,95460.84
2024-05-09T23:47:58.651Z,95462.34
2024-05-09T23:50:33.686Z,95465.41
2024-05-09T23:53:04.138Z,95455.50
2024-05-09T23:55:32.058Z,95452.47
2024-05-09T23:57:59.856Z,95453.97
